Time;durP1;ratioP1;P1;durP2;ratioP2;P2;SDS_P1;SDS_P2;PMS_P1;PMS_P2;Temp;Humidity;BMP_temperature;BMP_pressure;BME280_temperature;BME280_humidity;BME280_pressure;Samples;Min_cycle;Max_cycle;Signal;HPM_P1;HPM_P2
2023/12/30 00:01:25;;;;;;;9.55;3.42;;;;;;;-146.58;100.00;69501.63;5018733;28;20118;-63
2023/12/30 00:03:51;;;;;;;5.10;2.63;;;;;;;-146.58;100.00;69501.63;5032756;28;20469;-62
2023/12/30 00:06:18;;;;;;;11.63;4.05;;;;;;;-146.58;100.00;69501.63;5033562;28;20025;-63
2023/12/30 00:08:44;;;;;;;8.77;3.47;;;;;;;-146.58;100.00;69501.63;5032579;28;20071;-62
2023/12/30 00:11:09;;;;;;;7.43;3.20;;;;;;;-146.58;100.00;69501.63;5033919;28;20423;-63
2023/12/30 00:13:37;;;;;;;5.80;2.88;;;;;;;-146.58;100.00;69501.63;5033403;28;20100;-63
2023/12/30 00:16:02;;;;;;;5.05;2.45;;;;;;;-146.58;100.00;69501.63;5030652;28;20068;-63
2023/12/30 00:18:28;;;;;;;12.55;3.60;;;;;;;-146.58;100.00;69501.63;5033401;28;20465;-63
2023/12/30 00:20:53;;;;;;;8.40;4.28;;;;;;;-146.58;100.00;69501.63;5032037;28;20042;-63
2023/12/30 00:23:18;;;;;;;12.77;4.18;;;;;;;-146.58;100.00;69501.63;5034073;28;20021;-63
2023/12/30 00:25:44;;;;;;;13.10;5.00;;;;;;;-146.58;100.00;69501.63;5032054;28;20511;-63
2023/12/30 00:28:09;;;;;;;10.48;3.55;;;;;;;-146.58;100.00;69501.63;5028714;28;20030;-63
2023/12/30 00:30:35;;;;;;;15.07;3.35;;;;;;;-146.58;100.00;69501.63;5011979;28;20379;-62
2023/12/30 00:33:00;;;;;;;10.93;4.07;;;;;;;-146.58;100.00;69501.63;5013945;28;20026;-62
2023/12/30 00:35:25;;;;;;;7.70;3.20;;;;;;;-146.58;100.00;69501.63;5011869;28;20042;-62
2023/12/30 00:37:53;;;;;;;7.97;4.43;;;;;;;-146.58;100.00;69501.63;5013614;28;20033;-63
2023/12/30 00:40:18;;;;;;;13.75;3.33;;;;;;;-146.58;100.00;69501.63;5012296;28;20034;-63
2023/12/30 00:42:43;;;;;;;15.02;4.15;;;;;;;-146.58;100.00;69501.63;5013043;28;20377;-63
2023/12/30 00:45:09;;;;;;;11.00;4.03;;;;;;;-146.58;100.00;69501.63;5020560;28;20056;-63
2023/12/30 00:47:34;;;;;;;15.80;5.53;;;;;;;-146.58;100.00;69501.63;5033124;28;20029;-63
2023/12/30 00:50:00;;;;;;;7.97;3.95;;;;;;;-146.58;100.00;69501.63;5031396;28;20037;-63
2023/12/30 00:52:25;;;;;;;9.85;3.75;;;;;;;-146.58;100.00;69501.63;5031922;28;20025;-63
2023/12/30 00:54:50;;;;;;;13.98;4.88;;;;;;;-146.58;100.00;69501.63;5031715;28;20045;-63
2023/12/30 00:57:16;;;;;;;5.50;3.65;;;;;;;-146.58;100.00;69501.63;5018315;28;20030;-62
2023/12/30 00:59:41;;;;;;;11.27;4.03;;;;;;;-146.58;100.00;69501.63;5017969;28;20056;-62
2023/12/30 01:02:07;;;;;;;8.82;5.30;;;;;;;-146.58;100.00;69501.63;5033147;28;20037;-62
2023/12/30 01:04:32;;;;;;;12.95;3.88;;;;;;;-146.58;100.00;69501.63;5030986;28;20107;-62
2023/12/30 01:06:57;;;;;;;6.95;3.08;;;;;;;-146.58;100.00;69501.63;5032694;28;20025;-62
2023/12/30 01:09:23;;;;;;;9.10;3.72;;;;;;;-146.58;100.00;69501.63;5031081;28;20096;-63
2023/12/30 01:11:48;;;;;;;24.20;4.50;;;;;;;-146.58;100.00;69501.63;5032821;28;20021;-62
2023/12/30 01:14:14;;;;;;;10.23;3.33;;;;;;;-146.58;100.00;69501.63;5013579;28;20088;-62
2023/12/30 01:16:39;;;;;;;9.48;3.00;;;;;;;-146.58;100.00;69501.63;5012948;28;20478;-62
2023/12/30 01:19:05;;;;;;;9.43;2.90;;;;;;;-146.58;100.00;69501.63;5011603;28;20049;-62
2023/12/30 01:21:30;;;;;;;11.55;3.72;;;;;;;-146.58;100.00;69501.63;5012054;28;20030;-62
2023/12/30 01:23:55;;;;;;;10.02;6.05;;;;;;;-146.58;100.00;69501.63;5011289;28;20032;-62
2023/12/30 01:26:21;;;;;;;10.30;3.58;;;;;;;-146.58;100.00;69501.63;5012546;28;20033;-63
2023/12/30 01:28:46;;;;;;;3.80;2.78;;;;;;;-146.58;100.00;69501.63;5010848;28;20025;-62
2023/12/30 01:31:11;;;;;;;11.60;3.13;;;;;;;-146.58;100.00;69501.63;5012697;28;20026;-63
2023/12/30 01:33:37;;;;;;;5.07;3.70;;;;;;;-146.58;100.00;69501.63;5012523;28;20105;-63
2023/12/30 01:36:03;;;;;;;2.97;2.72;;;;;;;-146.58;100.00;69501.63;5010782;28;20046;-63
2023/12/30 01:38:28;;;;;;;14.07;5.45;;;;;;;-146.58;100.00;69501.63;5012197;28;20025;-63
2023/12/30 01:40:55;;;;;;;7.75;3.60;;;;;;;-146.58;100.00;69501.63;5011154;28;20576;-63
2023/12/30 01:43:28;;;;;;;6.32;2.63;;;;;;;-146.58;100.00;69501.63;5021716;28;20120;-63
2023/12/30 01:45:56;;;;;;;10.63;4.38;;;;;;;-146.58;100.00;69501.63;5030835;28;20080;-63
2023/12/30 01:48:22;;;;;;;6.72;4.15;;;;;;;-146.58;100.00;69501.63;5032031;28;20029;-63
2023/12/30 01:50:52;;;;;;;10.38;4.05;;;;;;;-146.58;100.00;69501.63;5030134;28;20038;-63
2023/12/30 01:53:19;;;;;;;15.10;5.70;;;;;;;-146.58;100.00;69501.63;5014897;28;20037;-63
2023/12/30 01:55:49;;;;;;;4.78;3.58;;;;;;;-146.58;100.00;69501.63;5010720;28;20038;-63
2023/12/30 01:58:14;;;;;;;4.18;3.28;;;;;;;-146.58;100.00;69501.63;5012538;28;20026;-63
2023/12/30 02:00:42;;;;;;;18.85;4.07;;;;;;;-146.58;100.00;69501.63;5010502;28;20041;-63
2023/12/30 02:03:07;;;;;;;10.38;4.00;;;;;;;-146.58;100.00;69501.63;5012065;28;20022;-63
2023/12/30 02:05:33;;;;;;;11.43;2.97;;;;;;;-146.58;100.00;69501.63;5009974;28;20050;-63
2023/12/30 02:07:59;;;;;;;10.55;3.70;;;;;;;-146.58;100.00;69501.63;5012031;28;20481;-63
2023/12/30 02:10:24;;;;;;;12.10;4.10;;;;;;;-146.58;100.00;69501.63;5010185;28;20129;-63
2023/12/30 02:12:49;;;;;;;13.82;4.82;;;;;;;-146.58;100.00;69501.63;5011597;28;20029;-63
2023/12/30 02:15:21;;;;;;;9.15;3.33;;;;;;;-146.58;100.00;69501.63;5010527;28;20115;-63
2023/12/30 02:17:50;;;;;;;11.77;4.50;;;;;;;-146.58;100.00;69501.63;5012068;28;20022;-63
2023/12/30 02:20:15;;;;;;;26.08;4.32;;;;;;;-146.58;100.00;69501.63;5010966;28;20468;-63
2023/12/30 02:22:45;;;;;;;21.48;7.15;;;;;;;-146.58;100.00;69501.63;5011697;28;20045;-63
2023/12/30 02:25:11;;;;;;;14.88;5.07;;;;;;;-146.58;100.00;69501.63;5011781;28;20561;-63
2023/12/30 02:27:36;;;;;;;7.90;4.28;;;;;;;-146.58;100.00;69501.63;5031019;28;20032;-63
2023/12/30 02:30:02;;;;;;;6.53;3.33;;;;;;;-146.58;100.00;69501.63;5029758;28;20117;-62
2023/12/30 02:32:27;;;;;;;7.85;4.35;;;;;;;-146.58;100.00;69501.63;5031417;28;20025;-62
2023/12/30 02:34:53;;;;;;;17.02;5.35;;;;;;;-146.58;100.00;69501.63;5029609;28;20563;-62
2023/12/30 02:37:18;;;;;;;11.57;5.82;;;;;;;-146.58;100.00;69501.63;5031270;28;20025;-62
2023/12/30 02:39:43;;;;;;;6.28;3.58;;;;;;;-146.58;100.00;69501.63;5028927;28;20033;-63
2023/12/30 02:42:09;;;;;;;11.38;4.93;;;;;;;-146.58;100.00;69501.63;5030908;28;20048;-63
2023/12/30 02:44:34;;;;;;;16.77;5.30;;;;;;;-146.58;100.00;69501.63;5029672;28;20053;-63
2023/12/30 02:47:00;;;;;;;13.90;3.67;;;;;;;-146.58;100.00;69501.63;5030656;28;20025;-63
2023/12/30 02:49:27;;;;;;;9.32;2.97;;;;;;;-146.58;100.00;69501.63;5027909;28;20060;-63
2023/12/30 02:51:53;;;;;;;19.13;6.72;;;;;;;-146.58;100.00;69501.63;5014306;28;20037;-63
2023/12/30 02:54:19;;;;;;;8.35;5.40;;;;;;;-146.58;100.00;69501.63;5010079;28;20034;-63
2023/12/30 02:56:45;;;;;;;15.18;7.07;;;;;;;-146.58;100.00;69501.63;5010885;28;20084;-63
2023/12/30 02:59:10;;;;;;;15.15;7.25;;;;;;;-146.58;100.00;69501.63;5009838;28;20038;-63
2023/12/30 03:01:37;;;;;;;6.60;4.32;;;;;;;-146.58;100.00;69501.63;5011128;28;20034;-63
2023/12/30 03:04:02;;;;;;;14.13;4.65;;;;;;;-146.58;100.00;69501.63;5009599;28;20766;-63
2023/12/30 03:06:28;;;;;;;9.10;3.70;;;;;;;-146.58;100.00;69501.63;5010973;28;20025;-63
2023/12/30 03:08:53;;;;;;;21.40;5.70;;;;;;;-146.58;100.00;69501.63;5009691;28;20025;-63
2023/12/30 03:11:19;;;;;;;16.42;4.47;;;;;;;-146.58;100.00;69501.63;5010533;28;20037;-62
2023/12/30 03:13:45;;;;;;;12.20;4.13;;;;;;;-146.58;100.00;69501.63;5009393;28;20053;-62
2023/12/30 03:16:11;;;;;;;14.45;4.55;;;;;;;-146.58;100.00;69501.63;5014195;28;20109;-63
2023/12/30 03:18:38;;;;;;;6.93;4.15;;;;;;;-146.58;100.00;69501.63;5014872;28;20026;-62
2023/12/30 03:21:07;;;;;;;6.85;3.10;;;;;;;-146.58;100.00;69501.63;5033649;28;20041;-62
2023/12/30 03:23:32;;;;;;;10.65;3.67;;;;;;;-146.58;100.00;69501.63;5039116;28;20033;-62
2023/12/30 03:25:58;;;;;;;13.70;5.07;;;;;;;-146.58;100.00;69501.63;5053041;28;20104;-62
2023/12/30 03:28:24;;;;;;;10.25;4.00;;;;;;;-146.58;100.00;69501.63;5054347;28;20476;-62
2023/12/30 03:30:49;;;;;;;19.30;6.10;;;;;;;-146.58;100.00;69501.63;5052903;28;20037;-62
2023/12/30 03:33:15;;;;;;;18.98;6.20;;;;;;;-146.58;100.00;69501.63;5054242;28;20530;-62
2023/12/30 03:35:40;;;;;;;12.88;4.50;;;;;;;-146.58;100.00;69501.63;5052911;28;20040;-62
2023/12/30 03:38:06;;;;;;;12.15;4.78;;;;;;;-146.58;100.00;69501.63;5051018;28;20021;-62
2023/12/30 03:40:31;;;;;;;23.45;7.25;;;;;;;-146.58;100.00;69501.63;5032472;28;20049;-62
2023/12/30 03:42:56;;;;;;;11.77;4.38;;;;;;;-146.58;100.00;69501.63;5034522;28;20025;-62
2023/12/30 03:45:22;;;;;;;8.75;3.63;;;;;;;-146.58;100.00;69501.63;5032802;28;20046;-62
2023/12/30 03:47:47;;;;;;;13.30;3.80;;;;;;;-146.58;100.00;69501.63;5034349;28;20381;-63
2023/12/30 03:50:13;;;;;;;19.88;4.75;;;;;;;-146.58;100.00;69501.63;5032856;28;20176;-63
2023/12/30 03:52:38;;;;;;;15.88;3.92;;;;;;;-146.58;100.00;69501.63;5033973;28;20104;-62
2023/12/30 03:55:04;;;;;;;21.92;4.88;;;;;;;-146.58;100.00;69501.63;5049421;28;20041;-62
2023/12/30 03:57:29;;;;;;;20.13;4.72;;;;;;;-146.58;100.00;69501.63;5054123;28;20056;-62
2023/12/30 03:59:55;;;;;;;8.23;3.97;;;;;;;-146.58;100.00;69501.63;5052693;28;20064;-62
2023/12/30 04:02:21;;;;;;;18.88;5.18;;;;;;;-146.58;100.00;69501.63;5053501;28;20051;-63
2023/12/30 04:04:49;;;;;;;10.73;5.13;;;;;;;-146.58;100.00;69501.63;5052564;28;20037;-63
2023/12/30 04:07:14;;;;;;;20.30;5.40;;;;;;;-146.58;100.00;69501.63;5053977;28;20094;-63
2023/12/30 04:09:40;;;;;;;10.55;4.50;;;;;;;-146.58;100.00;69501.63;5051771;28;20045;-63
2023/12/30 04:12:06;;;;;;;18.60;6.82;;;;;;;-146.58;100.00;69501.63;5053903;28;20028;-63
2023/12/30 04:14:31;;;;;;;16.15;6.60;;;;;;;-146.58;100.00;69501.63;5037226;28;20184;-62
2023/12/30 04:16:56;;;;;;;22.70;4.05;;;;;;;-146.58;100.00;69501.63;5033679;28;20021;-63
2023/12/30 04:19:23;;;;;;;19.23;4.35;;;;;;;-146.58;100.00;69501.63;5032338;28;20041;-63
2023/12/30 04:21:49;;;;;;;17.10;4.18;;;;;;;-146.58;100.00;69501.63;5040079;28;20483;-63
2023/12/30 04:24:14;;;;;;;8.43;3.53;;;;;;;-146.58;100.00;69501.63;5052060;28;20040;-61
2023/12/30 04:26:39;;;;;;;20.52;4.93;;;;;;;-146.58;100.00;69501.63;5051828;28;20357;-63
2023/12/30 04:29:05;;;;;;;8.23;3.60;;;;;;;-146.58;100.00;69501.63;5052249;28;20045;-62
2023/12/30 04:31:30;;;;;;;16.20;4.28;;;;;;;-146.58;100.00;69501.63;5053154;28;20024;-62
2023/12/30 04:33:55;;;;;;;11.73;4.10;;;;;;;-146.58;100.00;69501.63;5051652;28;20021;-62
2023/12/30 04:36:21;;;;;;;17.70;5.82;;;;;;;-146.58;100.00;69501.63;5053104;28;20036;-62
2023/12/30 04:38:46;;;;;;;11.77;3.88;;;;;;;-146.58;100.00;69501.63;5051687;28;20024;-61
2023/12/30 04:41:11;;;;;;;9.48;3.30;;;;;;;-146.58;100.00;69501.63;5047846;28;20366;-62
2023/12/30 04:43:37;;;;;;;16.55;5.15;;;;;;;-146.58;100.00;69501.63;5033351;28;20025;-62
2023/12/30 04:46:02;;;;;;;8.32;4.22;;;;;;;-146.58;100.00;69501.63;5032028;28;20045;-62
2023/12/30 04:48:28;;;;;;;13.45;5.85;;;;;;;-146.58;100.00;69501.63;5032650;28;20030;-62
2023/12/30 04:50:53;;;;;;;18.88;5.57;;;;;;;-146.58;100.00;69501.63;5031724;28;20037;-63
2023/12/30 04:53:18;;;;;;;29.15;7.55;;;;;;;-146.58;100.00;69501.63;5033346;28;20504;-63
2023/12/30 04:55:44;;;;;;;11.98;5.07;;;;;;;-146.58;100.00;69501.63;5031240;28;20132;-63
2023/12/30 04:58:09;;;;;;;11.85;3.28;;;;;;;-146.58;100.00;69501.63;5033048;28;20018;-63
2023/12/30 05:00:35;;;;;;;16.67;3.72;;;;;;;-146.58;100.00;69501.63;5030976;28;20056;-63
2023/12/30 05:03:00;;;;;;;10.18;4.15;;;;;;;-146.58;100.00;69501.63;5032618;28;20028;-63
2023/12/30 05:05:26;;;;;;;12.38;4.63;;;;;;;-146.58;100.00;69501.63;5031390;28;20033;-63
2023/12/30 05:07:51;;;;;;;11.20;3.92;;;;;;;-146.58;100.00;69501.63;5033133;28;20056;-63
2023/12/30 05:10:16;;;;;;;12.00;4.53;;;;;;;-146.58;100.00;69501.63;5030526;28;20084;-63
2023/12/30 05:12:42;;;;;;;11.00;3.63;;;;;;;-146.58;100.00;69501.63;5032660;28;20068;-62
2023/12/30 05:15:07;;;;;;;8.13;3.83;;;;;;;-146.58;100.00;69501.63;5033831;28;20083;-63
2023/12/30 05:17:35;;;;;;;34.47;8.30;;;;;;;-146.58;100.00;69501.63;5051674;28;20087;-63
2023/12/30 05:20:00;;;;;;;16.20;4.15;;;;;;;-146.58;100.00;69501.63;5039794;28;20076;-63
2023/12/30 05:22:25;;;;;;;26.67;6.68;;;;;;;-146.58;100.00;69501.63;5030515;28;20060;-63
2023/12/30 05:24:51;;;;;;;21.67;6.65;;;;;;;-146.58;100.00;69501.63;5030905;28;20042;-63
2023/12/30 05:27:16;;;;;;;17.27;3.90;;;;;;;-146.58;100.00;69501.63;5032635;28;20036;-63
2023/12/30 05:29:41;;;;;;;14.07;6.07;;;;;;;-146.58;100.00;69501.63;5030722;28;20543;-63
2023/12/30 05:32:07;;;;;;;23.50;4.75;;;;;;;-146.58;100.00;69501.63;5032197;28;20032;-62
2023/12/30 05:34:32;;;;;;;17.85;7.25;;;;;;;-146.58;100.00;69501.63;5039822;28;20060;-63
2023/12/30 05:36:57;;;;;;;25.40;9.07;;;;;;;-146.58;100.00;69501.63;5046609;28;20017;-63
2023/12/30 05:39:23;;;;;;;39.90;7.07;;;;;;;-146.58;100.00;69501.63;5029948;28;20103;-62
2023/12/30 05:41:48;;;;;;;17.95;4.72;;;;;;;-146.58;100.00;69501.63;5032283;28;20025;-63
2023/12/30 05:44:14;;;;;;;14.23;5.05;;;;;;;-146.58;100.00;69501.63;5030785;28;20037;-63
2023/12/30 05:46:39;;;;;;;27.52;6.00;;;;;;;-146.58;100.00;69501.63;5031429;28;20033;-63
2023/12/30 05:49:04;;;;;;;25.25;6.82;;;;;;;-146.58;100.00;69501.63;5033584;28;20040;-63
2023/12/30 05:51:30;;;;;;;10.98;4.85;;;;;;;-146.58;100.00;69501.63;5051692;28;20025;-63
2023/12/30 05:53:55;;;;;;;20.08;5.75;;;;;;;-146.58;100.00;69501.63;5050283;28;20547;-63
2023/12/30 05:56:22;;;;;;;12.52;4.60;;;;;;;-146.58;100.00;69501.63;5052067;28;20078;-63
2023/12/30 05:58:47;;;;;;;19.70;7.07;;;;;;;-146.58;100.00;69501.63;5050415;28;20100;-63
2023/12/30 06:01:13;;;;;;;20.23;4.88;;;;;;;-146.58;100.00;69501.63;5051455;28;20120;-63
2023/12/30 06:03:38;;;;;;;14.05;5.07;;;;;;;-146.58;100.00;69501.63;5051141;28;20013;-63
2023/12/30 06:06:04;;;;;;;20.23;6.43;;;;;;;-146.58;100.00;69501.63;5050274;28;20565;-63
2023/12/30 06:08:32;;;;;;;25.00;6.50;;;;;;;-146.58;100.00;69501.63;5039771;28;20075;-63
2023/12/30 06:10:57;;;;;;;23.00;6.30;;;;;;;-146.58;100.00;69501.63;5030313;28;20409;-63
2023/12/30 06:13:23;;;;;;;14.20;5.85;;;;;;;-146.58;100.00;69501.63;5031422;28;20021;-63
2023/12/30 06:15:50;;;;;;;16.63;5.55;;;;;;;-146.58;100.00;69501.63;5037158;28;20052;-63
2023/12/30 06:18:16;;;;;;;16.10;4.70;;;;;;;-146.58;100.00;69501.63;5039157;28;20520;-63
2023/12/30 06:20:46;;;;;;;19.00;5.40;;;;;;;-146.58;100.00;69501.63;5029446;28;20041;-62
2023/12/30 06:23:13;;;;;;;24.80;8.30;;;;;;;-146.58;100.00;69501.63;5031229;28;20025;-62
2023/12/30 06:25:39;;;;;;;22.20;7.05;;;;;;;-146.58;100.00;69501.63;5029835;28;20045;-62
2023/12/30 06:28:05;;;;;;;19.13;5.38;;;;;;;-146.58;100.00;69501.63;5031587;28;20388;-63
2023/12/30 06:30:30;;;;;;;17.25;6.15;;;;;;;-146.58;100.00;69501.63;5029169;28;20041;-63
2023/12/30 06:32:55;;;;;;;14.25;5.78;;;;;;;-146.58;100.00;69501.63;5031340;28;20040;-63
2023/12/30 06:35:21;;;;;;;15.95;6.03;;;;;;;-146.58;100.00;69501.63;5029657;28;20037;-63
2023/12/30 06:37:49;;;;;;;15.75;6.57;;;;;;;-146.58;100.00;69501.63;5029318;28;20435;-61
2023/12/30 06:40:15;;;;;;;26.63;7.68;;;;;;;-146.58;100.00;69501.63;5029973;28;20041;-61
2023/12/30 06:42:44;;;;;;;30.67;7.00;;;;;;;-146.58;100.00;69501.63;5030902;28;20550;-62
2023/12/30 06:45:10;;;;;;;12.38;5.93;;;;;;;-146.58;100.00;69501.63;5029696;28;20041;-62
2023/12/30 06:47:36;;;;;;;22.40;5.10;;;;;;;-146.58;100.00;69501.63;5030707;28;20030;-63
2023/12/30 06:50:01;;;;;;;16.17;5.47;;;;;;;-146.58;100.00;69501.63;5028849;28;20416;-63
2023/12/30 06:52:26;;;;;;;17.85;6.55;;;;;;;-146.58;100.00;69501.63;5030342;28;20052;-62
2023/12/30 06:54:53;;;;;;;19.25;8.45;;;;;;;-146.58;100.00;69501.63;5029743;28;20049;-62
2023/12/30 06:57:19;;;;;;;19.95;7.60;;;;;;;-146.58;100.00;69501.63;5031299;28;20048;-62
2023/12/30 06:59:44;;;;;;;21.38;6.60;;;;;;;-146.58;100.00;69501.63;5028934;28;20060;-62
2023/12/30 07:02:10;;;;;;;16.00;7.18;;;;;;;-146.58;100.00;69501.63;5031144;28;20028;-62
2023/12/30 07:04:35;;;;;;;17.23;6.80;;;;;;;-146.58;100.00;69501.63;5029013;28;20037;-62
2023/12/30 07:07:00;;;;;;;19.10;5.50;;;;;;;-146.58;100.00;69501.63;5030488;28;20044;-62
2023/12/30 07:09:26;;;;;;;29.17;7.43;;;;;;;-146.58;100.00;69501.63;5029064;28;20088;-61
2023/12/30 07:11:51;;;;;;;15.27;4.78;;;;;;;-146.58;100.00;69501.63;5030824;28;20028;-62
2023/12/30 07:14:16;;;;;;;18.15;7.80;;;;;;;-146.58;100.00;69501.63;5040515;28;20059;-62
2023/12/30 07:16:42;;;;;;;20.52;7.85;;;;;;;-146.58;100.00;69501.63;5049863;28;20612;-61
2023/12/30 07:19:07;;;;;;;15.52;6.40;;;;;;;-146.58;100.00;69501.63;5030472;28;20041;-62
2023/12/30 07:21:32;;;;;;;24.23;7.15;;;;;;;-146.58;100.00;69501.63;5030549;28;20032;-62
2023/12/30 07:23:58;;;;;;;11.60;6.20;;;;;;;-146.58;100.00;69501.63;5028474;28;20029;-62
2023/12/30 07:26:23;;;;;;;17.73;6.57;;;;;;;-146.58;100.00;69501.63;5030043;28;20028;-62
2023/12/30 07:28:48;;;;;;;15.27;4.85;;;;;;;-146.58;100.00;69501.63;5029199;28;20358;-62
2023/12/30 07:31:15;;;;;;;15.13;4.75;;;;;;;-146.58;100.00;69501.63;5035625;28;20171;-62
2023/12/30 07:33:40;;;;;;;16.50;7.13;;;;;;;-146.58;100.00;69501.63;5030897;28;20021;-62
2023/12/30 07:36:07;;;;;;;17.10;6.22;;;;;;;-146.58;100.00;69501.63;5029325;28;20408;-62
2023/12/30 07:38:33;;;;;;;11.27;5.18;;;;;;;-146.58;100.00;69501.63;5029672;28;20029;-61
2023/12/30 07:40:58;;;;;;;35.78;5.95;;;;;;;-146.58;100.00;69501.63;5029247;28;20033;-62
2023/12/30 07:43:24;;;;;;;18.10;6.40;;;;;;;-146.58;100.00;69501.63;5035644;28;20018;-62
2023/12/30 07:45:49;;;;;;;26.80;7.07;;;;;;;-146.58;100.00;69501.63;5028590;28;20041;-61
2023/12/30 07:48:15;;;;;;;43.90;8.65;;;;;;;-146.58;100.00;69501.63;5030514;28;20025;-62
2023/12/30 07:50:40;;;;;;;18.48;5.80;;;;;;;-146.58;100.00;69501.63;5028758;28;20041;-62
2023/12/30 07:53:05;;;;;;;21.98;7.80;;;;;;;-146.58;100.00;69501.63;5029936;28;20079;-62
2023/12/30 07:55:31;;;;;;;17.25;6.38;;;;;;;-146.58;100.00;69501.63;5028770;28;20037;-62
2023/12/30 07:57:56;;;;;;;19.33;5.07;;;;;;;-146.58;100.00;69501.63;5047634;28;20508;-61
2023/12/30 08:00:22;;;;;;;20.88;7.70;;;;;;;-146.58;100.00;69501.63;5048425;28;20037;-62
2023/12/30 08:02:47;;;;;;;22.05;6.07;;;;;;;-146.58;100.00;69501.63;5049506;28;20021;-62
2023/12/30 08:05:12;;;;;;;22.48;8.07;;;;;;;-146.58;100.00;69501.63;5032588;28;20041;-61
2023/12/30 08:07:38;;;;;;;19.25;6.53;;;;;;;-146.58;100.00;69501.63;5032883;28;20400;-62
2023/12/30 08:10:04;;;;;;;12.85;5.88;;;;;;;-146.58;100.00;69501.63;5032361;28;20087;-62
2023/12/30 08:12:29;;;;;;;22.25;6.65;;;;;;;-146.58;100.00;69501.63;5033835;28;20367;-62
2023/12/30 08:14:54;;;;;;;18.75;7.43;;;;;;;-146.58;100.00;69501.63;5031818;28;20408;-61
2023/12/30 08:17:20;;;;;;;27.52;8.55;;;;;;;-146.58;100.00;69501.63;5048996;28;20087;-61
2023/12/30 08:19:45;;;;;;;11.82;5.45;;;;;;;-146.58;100.00;69501.63;5051702;28;20032;-62
2023/12/30 08:22:11;;;;;;;19.20;5.03;;;;;;;-146.58;100.00;69501.63;5050876;28;20052;-62
2023/12/30 08:24:36;;;;;;;19.65;5.90;;;;;;;-146.58;100.00;69501.63;5038822;28;20045;-61
2023/12/30 08:27:01;;;;;;;13.98;5.20;;;;;;;-146.58;100.00;69501.63;5053447;28;20020;-61
2023/12/30 08:29:27;;;;;;;22.90;7.13;;;;;;;-146.58;100.00;69501.63;5051171;28;20033;-62
2023/12/30 08:31:52;;;;;;;27.70;7.25;;;;;;;-146.58;100.00;69501.63;5053615;28;20028;-59
2023/12/30 08:34:20;;;;;;;17.17;5.68;;;;;;;-146.58;100.00;69501.63;5052026;28;20044;-59
2023/12/30 08:36:45;;;;;;;22.73;6.22;;;;;;;-146.58;100.00;69501.63;5052743;28;20041;-59
2023/12/30 08:39:11;;;;;;;23.35;6.45;;;;;;;-146.58;100.00;69501.63;5051699;28;20048;-58
2023/12/30 08:41:37;;;;;;;28.90;7.25;;;;;;;-146.58;100.00;69501.63;5050290;28;20029;-58
2023/12/30 08:44:02;;;;;;;21.80;5.05;;;;;;;-146.58;100.00;69501.63;5030882;28;20049;-58
2023/12/30 08:46:28;;;;;;;29.83;7.32;;;;;;;-146.58;100.00;69501.63;5031145;28;20030;-58
2023/12/30 08:48:53;;;;;;;36.65;6.80;;;;;;;-146.58;100.00;69501.63;5031285;28;20033;-58
2023/12/30 08:51:18;;;;;;;23.15;6.68;;;;;;;-146.58;100.00;69501.63;5032528;28;20040;-58
2023/12/30 08:53:44;;;;;;;10.20;4.55;;;;;;;-146.58;100.00;69501.63;5031342;28;20026;-58
2023/12/30 08:56:09;;;;;;;16.40;5.28;;;;;;;-146.58;100.00;69501.63;5033156;28;20075;-58
2023/12/30 08:58:35;;;;;;;18.63;6.32;;;;;;;-146.58;100.00;69501.63;5032062;28;20688;-58
2023/12/30 09:01:00;;;;;;;23.38;4.65;;;;;;;-146.58;100.00;69501.63;5031580;28;20041;-58
2023/12/30 09:03:26;;;;;;;18.00;4.97;;;;;;;-146.58;100.00;69501.63;5032808;28;20554;-58
2023/12/30 09:05:52;;;;;;;27.23;5.90;;;;;;;-146.58;100.00;69501.63;5031167;28;20045;-57
2023/12/30 09:08:18;;;;;;;14.30;6.25;;;;;;;-146.58;100.00;69501.63;5032843;28;20022;-58
2023/12/30 09:10:44;;;;;;;10.10;4.45;;;;;;;-146.58;100.00;69501.63;5033028;28;20041;-58
2023/12/30 09:13:09;;;;;;;16.20;5.47;;;;;;;-146.58;100.00;69501.63;5030893;28;20033;-58
2023/12/30 09:15:34;;;;;;;16.10;4.50;;;;;;;-146.58;100.00;69501.63;5030990;28;20508;-58
2023/12/30 09:18:00;;;;;;;25.73;5.10;;;;;;;-146.58;100.00;69501.63;5032193;28;20025;-58
2023/12/30 09:20:25;;;;;;;13.68;5.38;;;;;;;-146.58;100.00;69501.63;5030260;28;20037;-58
2023/12/30 09:22:52;;;;;;;13.05;4.60;;;;;;;-146.58;100.00;69501.63;5034464;28;20037;-58
2023/12/30 09:25:17;;;;;;;13.20;6.60;;;;;;;-146.58;100.00;69501.63;5031126;28;20041;-58
2023/12/30 09:27:42;;;;;;;18.73;6.50;;;;;;;-146.58;100.00;69501.63;5027908;28;20353;-60
2023/12/30 09:30:08;;;;;;;16.25;4.80;;;;;;;-146.58;100.00;69501.63;5022413;28;20045;-63
2023/12/30 09:32:34;;;;;;;17.38;5.80;;;;;;;-146.58;100.00;69501.63;5038416;28;20033;-58
2023/12/30 09:35:02;;;;;;;22.88;6.30;;;;;;;-146.58;100.00;69501.63;5030668;28;20067;-58
2023/12/30 09:37:27;;;;;;;22.15;5.80;;;;;;;-146.58;100.00;69501.63;5031781;28;20061;-58
2023/12/30 09:39:53;;;;;;;17.98;5.07;;;;;;;-146.58;100.00;69501.63;5030866;28;20041;-58
2023/12/30 09:42:19;;;;;;;20.95;7.63;;;;;;;-146.58;100.00;69501.63;5031986;28;20028;-58
2023/12/30 09:44:47;;;;;;;16.27;5.40;;;;;;;-146.58;100.00;69501.63;5029985;28;20042;-58
2023/12/30 09:47:13;;;;;;;22.48;4.93;;;;;;;-146.58;100.00;69501.63;5051101;28;20025;-58
2023/12/30 09:49:40;;;;;;;25.38;6.32;;;;;;;-146.58;100.00;69501.63;5050334;28;20629;-58
2023/12/30 09:52:09;;;;;;;14.32;5.30;;;;;;;-146.58;100.00;69501.63;5048757;28;20036;-58
2023/12/30 09:54:34;;;;;;;29.83;7.93;;;;;;;-146.58;100.00;69501.63;5029978;28;20033;-58
2023/12/30 09:57:02;;;;;;;17.75;4.30;;;;;;;-146.58;100.00;69501.63;5031329;28;20548;-58
2023/12/30 09:59:29;;;;;;;13.80;4.28;;;;;;;-146.58;100.00;69501.63;5029866;28;20042;-58
2023/12/30 10:01:55;;;;;;;15.10;4.95;;;;;;;-146.58;100.00;69501.63;5032107;28;20021;-58
2023/12/30 10:04:20;;;;;;;15.85;4.65;;;;;;;-146.58;100.00;69501.63;5030384;28;20488;-58
2023/12/30 10:06:47;;;;;;;17.33;5.60;;;;;;;-146.58;100.00;69501.63;5032449;28;20025;-58
2023/12/30 10:09:13;;;;;;;10.73;4.43;;;;;;;-146.58;100.00;69501.63;5050089;28;20032;-58
2023/12/30 10:11:38;;;;;;;13.55;4.32;;;;;;;-146.58;100.00;69501.63;5050042;28;20107;-58
2023/12/30 10:14:04;;;;;;;17.80;6.07;;;;;;;-146.58;100.00;69501.63;5049888;28;20041;-58
2023/12/30 10:16:29;;;;;;;27.00;7.13;;;;;;;-146.58;100.00;69501.63;5050827;28;20040;-58
2023/12/30 10:18:56;;;;;;;20.35;4.93;;;;;;;-146.58;100.00;69501.63;5050042;28;20116;-57
2023/12/30 10:21:21;;;;;;;15.35;5.30;;;;;;;-146.58;100.00;69501.63;5038377;28;20052;-58
2023/12/30 10:23:51;;;;;;;9.05;3.70;;;;;;;-146.58;100.00;69501.63;5029844;28;20392;-58
2023/12/30 10:26:18;;;;;;;17.73;5.47;;;;;;;-146.58;100.00;69501.63;5031652;28;20021;-58
2023/12/30 10:28:44;;;;;;;12.13;5.20;;;;;;;-146.58;100.00;69501.63;5029792;28;20061;-58
2023/12/30 10:31:11;;;;;;;12.07;4.35;;;;;;;-146.58;100.00;69501.63;5030835;28;20055;-58
2023/12/30 10:33:37;;;;;;;14.27;4.25;;;;;;;-146.58;100.00;69501.63;5031268;28;20112;-58
2023/12/30 10:36:06;;;;;;;25.25;6.65;;;;;;;-146.58;100.00;69501.63;5039560;28;20639;-58
2023/12/30 10:38:32;;;;;;;14.88;6.47;;;;;;;-146.58;100.00;69501.63;5030776;28;20473;-58
2023/12/30 10:40:57;;;;;;;13.90;5.72;;;;;;;-146.58;100.00;69501.63;5029202;28;20051;-58
2023/12/30 10:43:23;;;;;;;17.58;4.63;;;;;;;-146.58;100.00;69501.63;5034174;28;20029;-58
2023/12/30 10:45:57;;;;;;;28.00;7.63;;;;;;;-146.58;100.00;69501.63;5049390;28;20047;-59
2023/12/30 10:48:22;;;;;;;19.38;5.28;;;;;;;-146.58;100.00;69501.63;5051017;28;20025;-58
2023/12/30 10:50:53;;;;;;;22.92;6.22;;;;;;;-146.58;100.00;69501.63;5040793;28;20477;-64
2023/12/30 10:53:39;;;;;;;23.00;7.13;;;;;;;-146.58;100.00;69501.63;5028185;28;20442;-63
2023/12/30 10:56:07;;;;;;;18.05;5.35;;;;;;;-146.58;100.00;69501.63;5027376;28;20044;-59